sensor_id;sensor_type;location;lat;lon;timestamp;temperature;humidity
10968;DHT22;5536;49.602;10.980;2022-11-20T00:01:36;1.40;99.90
10968;DHT22;5536;49.602;10.980;2022-11-20T00:04:03;1.30;99.90
10968;DHT22;5536;49.602;10.980;2022-11-20T00:06:30;1.20;99.90
10968;DHT22;5536;49.602;10.980;2022-11-20T00:08:58;1.40;99.90
10968;DHT22;5536;49.602;10.980;2022-11-20T00:11:26;1.40;99.90
10968;DHT22;5536;49.602;10.980;2022-11-20T00:13:59;1.40;99.90
10968;DHT22;5536;49.602;10.980;2022-11-20T00:16:30;1.50;99.90
10968;DHT22;5536;49.602;10.980;2022-11-20T00:18:57;1.60;99.90
10968;DHT22;5536;49.602;10.980;2022-11-20T00:21:28;1.50;99.90
10968;DHT22;5536;49.602;10.980;2022-11-20T00:23:56;1.50;99.90
10968;DHT22;5536;49.602;10.980;2022-11-20T00:26:25;1.60;99.90
10968;DHT22;5536;49.602;10.980;2022-11-20T00:28:54;1.60;99.90
10968;DHT22;5536;49.602;10.980;2022-11-20T00:31:23;1.70;99.90
10968;DHT22;5536;49.602;10.980;2022-11-20T00:33:52;1.60;99.90
10968;DHT22;5536;49.602;10.980;2022-11-20T00:36:20;1.50;99.90
10968;DHT22;5536;49.602;10.980;2022-11-20T00:38:51;1.50;99.90
10968;DHT22;5536;49.602;10.980;2022-11-20T00:41:21;1.40;99.90
10968;DHT22;5536;49.602;10.980;2022-11-20T00:43:48;1.50;99.90
10968;DHT22;5536;49.602;10.980;2022-11-20T00:46:18;1.50;99.90
10968;DHT22;5536;49.602;10.980;2022-11-20T00:48:48;1.60;99.90
10968;DHT22;5536;49.602;10.980;2022-11-20T00:51:18;1.70;99.90
10968;DHT22;5536;49.602;10.980;2022-11-20T00:53:46;1.80;99.90
10968;DHT22;5536;49.602;10.980;2022-11-20T00:56:15;1.90;99.90
10968;DHT22;5536;49.602;10.980;2022-11-20T00:58:44;1.70;99.90
10968;DHT22;5536;49.602;10.980;2022-11-20T01:01:15;1.50;99.90
10968;DHT22;5536;49.602;10.980;2022-11-20T01:03:44;1.70;99.90
10968;DHT22;5536;49.602;10.980;2022-11-20T01:06:13;1.60;99.90
10968;DHT22;5536;49.602;10.980;2022-11-20T01:08:45;1.50;99.90
10968;DHT22;5536;49.602;10.980;2022-11-20T01:11:16;1.50;99.90
10968;DHT22;5536;49.602;10.980;2022-11-20T01:13:45;1.70;99.90
10968;DHT22;5536;49.602;10.980;2022-11-20T01:16:14;1.60;99.90
10968;DHT22;5536;49.602;10.980;2022-11-20T01:18:46;1.60;99.90
10968;DHT22;5536;49.602;10.980;2022-11-20T01:21:15;1.60;99.90
10968;DHT22;5536;49.602;10.980;2022-11-20T01:23:45;1.70;99.90
10968;DHT22;5536;49.602;10.980;2022-11-20T01:26:14;1.70;99.90
10968;DHT22;5536;49.602;10.980;2022-11-20T01:28:42;1.70;99.90
10968;DHT22;5536;49.602;10.980;2022-11-20T01:31:14;1.80;99.90
10968;DHT22;5536;49.602;10.980;2022-11-20T01:33:41;1.90;99.90
10968;DHT22;5536;49.602;10.980;2022-11-20T01:36:09;1.90;99.90
10968;DHT22;5536;49.602;10.980;2022-11-20T01:38:36;2.10;99.90
10968;DHT22;5536;49.602;10.980;2022-11-20T01:41:06;2.10;99.90
10968;DHT22;5536;49.602;10.980;2022-11-20T01:43:33;2.00;99.90
10968;DHT22;5536;49.602;10.980;2022-11-20T01:46:12;1.90;99.90
10968;DHT22;5536;49.602;10.980;2022-11-20T01:48:45;2.00;99.90
10968;DHT22;5536;49.602;10.980;2022-11-20T01:51:19;1.80;99.90
10968;DHT22;5536;49.602;10.980;2022-11-20T01:53:50;1.70;99.90
10968;DHT22;5536;49.602;10.980;2022-11-20T01:56:20;1.50;99.90
10968;DHT22;5536;49.602;10.980;2022-11-20T01:58:55;1.50;99.90
10968;DHT22;5536;49.602;10.980;2022-11-20T02:01:23;1.40;99.90
10968;DHT22;5536;49.602;10.980;2022-11-20T02:03:55;1.40;99.90
10968;DHT22;5536;49.602;10.980;2022-11-20T02:06:25;1.40;99.90
10968;DHT22;5536;49.602;10.980;2022-11-20T02:08:53;1.30;99.90
10968;DHT22;5536;49.602;10.980;2022-11-20T02:11:22;1.30;99.90
10968;DHT22;5536;49.602;10.980;2022-11-20T02:13:51;1.20;99.90
10968;DHT22;5536;49.602;10.980;2022-11-20T02:16:24;1.10;99.90
10968;DHT22;5536;49.602;10.980;2022-11-20T02:18:56;1.10;99.90
10968;DHT22;5536;49.602;10.980;2022-11-20T02:21:30;1.20;99.90
10968;DHT22;5536;49.602;10.980;2022-11-20T02:24:09;1.20;99.90
10968;DHT22;5536;49.602;10.980;2022-11-20T02:26:47;1.30;99.90
10968;DHT22;5536;49.602;10.980;2022-11-20T02:29:22;1.40;99.90
10968;DHT22;5536;49.602;10.980;2022-11-20T02:31:50;1.50;99.90
10968;DHT22;5536;49.602;10.980;2022-11-20T02:34:18;1.50;99.90
10968;DHT22;5536;49.602;10.980;2022-11-20T02:36:49;1.50;99.90
10968;DHT22;5536;49.602;10.980;2022-11-20T02:39:19;1.40;99.90
10968;DHT22;5536;49.602;10.980;2022-11-20T02:41:47;1.30;99.90
10968;DHT22;5536;49.602;10.980;2022-11-20T02:44:14;1.30;99.90
10968;DHT22;5536;49.602;10.980;2022-11-20T02:46:41;1.30;99.90
10968;DHT22;5536;49.602;10.980;2022-11-20T02:49:08;1.40;99.90
10968;DHT22;5536;49.602;10.980;2022-11-20T02:51:35;1.30;99.90
10968;DHT22;5536;49.602;10.980;2022-11-20T02:54:02;1.20;99.90
10968;DHT22;5536;49.602;10.980;2022-11-20T02:56:31;1.20;99.90
10968;DHT22;5536;49.602;10.980;2022-11-20T02:59:03;1.20;99.90
10968;DHT22;5536;49.602;10.980;2022-11-20T03:01:30;1.30;99.90
10968;DHT22;5536;49.602;10.980;2022-11-20T03:03:57;1.30;99.90
10968;DHT22;5536;49.602;10.980;2022-11-20T03:06:23;1.20;99.90
10968;DHT22;5536;49.602;10.980;2022-11-20T03:08:50;1.20;99.90
10968;DHT22;5536;49.602;10.980;2022-11-20T03:11:17;1.10;99.90
10968;DHT22;5536;49.602;10.980;2022-11-20T03:13:46;1.10;99.90
10968;DHT22;5536;49.602;10.980;2022-11-20T03:16:15;1.30;99.90
10968;DHT22;5536;49.602;10.980;2022-11-20T03:18:44;1.50;99.90
10968;DHT22;5536;49.602;10.980;2022-11-20T03:21:12;1.50;99.90
10968;DHT22;5536;49.602;10.980;2022-11-20T03:23:39;1.50;99.90
10968;DHT22;5536;49.602;10.980;2022-11-20T03:26:08;1.50;99.90
10968;DHT22;5536;49.602;10.980;2022-11-20T03:28:38;1.40;99.90
10968;DHT22;5536;49.602;10.980;2022-11-20T03:31:11;1.20;99.90
10968;DHT22;5536;49.602;10.980;2022-11-20T03:33:39;1.20;99.90
10968;DHT22;5536;49.602;10.980;2022-11-20T03:36:08;1.40;99.90
10968;DHT22;5536;49.602;10.980;2022-11-20T03:38:37;1.20;99.90
10968;DHT22;5536;49.602;10.980;2022-11-20T03:41:06;1.20;99.90
10968;DHT22;5536;49.602;10.980;2022-11-20T03:43:33;1.30;99.90
10968;DHT22;5536;49.602;10.980;2022-11-20T03:46:00;1.20;99.90
10968;DHT22;5536;49.602;10.980;2022-11-20T03:48:29;1.20;99.90
10968;DHT22;5536;49.602;10.980;2022-11-20T03:51:07;1.20;99.90
10968;DHT22;5536;49.602;10.980;2022-11-20T03:53:34;1.40;99.90
10968;DHT22;5536;49.602;10.980;2022-11-20T03:56:02;1.40;99.90
10968;DHT22;5536;49.602;10.980;2022-11-20T03:58:29;1.30;99.90
10968;DHT22;5536;49.602;10.980;2022-11-20T04:00:56;1.20;99.90
10968;DHT22;5536;49.602;10.980;2022-11-20T04:03:23;1.30;99.90
10968;DHT22;5536;49.602;10.980;2022-11-20T04:05:51;1.30;99.90
10968;DHT22;5536;49.602;10.980;2022-11-20T04:08:18;1.40;99.90
10968;DHT22;5536;49.602;10.980;2022-11-20T04:10:45;1.30;99.90
10968;DHT22;5536;49.602;10.980;2022-11-20T04:13:12;1.20;99.90
10968;DHT22;5536;49.602;10.980;2022-11-20T04:15:39;1.30;99.90
10968;DHT22;5536;49.602;10.980;2022-11-20T04:18:06;1.30;99.90
10968;DHT22;5536;49.602;10.980;2022-11-20T04:20:33;1.50;99.90
10968;DHT22;5536;49.602;10.980;2022-11-20T04:23:01;1.60;99.90
10968;DHT22;5536;49.602;10.980;2022-11-20T04:25:28;1.60;99.90
10968;DHT22;5536;49.602;10.980;2022-11-20T04:28:06;1.60;99.90
10968;DHT22;5536;49.602;10.980;2022-11-20T04:30:33;1.60;99.90
10968;DHT22;5536;49.602;10.980;2022-11-20T04:33:00;1.70;99.90
10968;DHT22;5536;49.602;10.980;2022-11-20T04:35:27;1.50;99.90
10968;DHT22;5536;49.602;10.980;2022-11-20T04:37:53;1.50;99.90
10968;DHT22;5536;49.602;10.980;2022-11-20T04:40:20;1.60;99.90
10968;DHT22;5536;49.602;10.980;2022-11-20T04:42:47;1.40;99.90
10968;DHT22;5536;49.602;10.980;2022-11-20T04:45:15;1.60;99.90
10968;DHT22;5536;49.602;10.980;2022-11-20T04:47:42;1.50;99.90
10968;DHT22;5536;49.602;10.980;2022-11-20T04:50:09;1.60;99.90
10968;DHT22;5536;49.602;10.980;2022-11-20T04:52:36;1.70;99.90
10968;DHT22;5536;49.602;10.980;2022-11-20T04:55:04;1.80;99.90
10968;DHT22;5536;49.602;10.980;2022-11-20T04:57:31;1.70;99.90
10968;DHT22;5536;49.602;10.980;2022-11-20T04:59:58;1.80;99.90
10968;DHT22;5536;49.602;10.980;2022-11-20T05:02:26;1.80;99.90
10968;DHT22;5536;49.602;10.980;2022-11-20T05:04:53;1.60;99.90
10968;DHT22;5536;49.602;10.980;2022-11-20T05:07:20;1.60;99.90
10968;DHT22;5536;49.602;10.980;2022-11-20T05:09:47;1.60;99.90
10968;DHT22;5536;49.602;10.980;2022-11-20T05:12:13;1.70;99.90
10968;DHT22;5536;49.602;10.980;2022-11-20T05:14:40;1.60;99.90
10968;DHT22;5536;49.602;10.980;2022-11-20T05:17:10;1.50;99.90
10968;DHT22;5536;49.602;10.980;2022-11-20T05:19:38;1.40;99.90
10968;DHT22;5536;49.602;10.980;2022-11-20T05:22:05;1.40;99.90
10968;DHT22;5536;49.602;10.980;2022-11-20T05:24:32;1.50;99.90
10968;DHT22;5536;49.602;10.980;2022-11-20T05:26:59;1.40;99.90
10968;DHT22;5536;49.602;10.980;2022-11-20T05:29:26;1.40;99.90
10968;DHT22;5536;49.602;10.980;2022-11-20T05:31:53;1.60;99.90
10968;DHT22;5536;49.602;10.980;2022-11-20T05:34:20;1.60;99.90
10968;DHT22;5536;49.602;10.980;2022-11-20T05:36:48;1.70;99.90
10968;DHT22;5536;49.602;10.980;2022-11-20T05:39:15;1.70;99.90
10968;DHT22;5536;49.602;10.980;2022-11-20T05:41:42;1.70;99.90
10968;DHT22;5536;49.602;10.980;2022-11-20T05:44:10;1.70;99.90
10968;DHT22;5536;49.602;10.980;2022-11-20T05:46:37;1.60;99.90
10968;DHT22;5536;49.602;10.980;2022-11-20T05:49:04;1.70;99.90
10968;DHT22;5536;49.602;10.980;2022-11-20T05:51:31;1.80;99.90
10968;DHT22;5536;49.602;10.980;2022-11-20T05:53:59;1.80;99.90
10968;DHT22;5536;49.602;10.980;2022-11-20T05:56:26;1.70;99.90
10968;DHT22;5536;49.602;10.980;2022-11-20T05:58:53;1.60;99.90
10968;DHT22;5536;49.602;10.980;2022-11-20T06:01:22;1.70;99.90
10968;DHT22;5536;49.602;10.980;2022-11-20T06:03:50;1.80;99.90
10968;DHT22;5536;49.602;10.980;2022-11-20T06:06:17;1.90;99.90
10968;DHT22;5536;49.602;10.980;2022-11-20T06:08:45;1.80;99.90
10968;DHT22;5536;49.602;10.980;2022-11-20T06:11:14;1.70;99.90
10968;DHT22;5536;49.602;10.980;2022-11-20T06:13:42;1.60;99.90
10968;DHT22;5536;49.602;10.980;2022-11-20T06:16:10;1.60;99.90
10968;DHT22;5536;49.602;10.980;2022-11-20T06:18:37;1.70;99.90
10968;DHT22;5536;49.602;10.980;2022-11-20T06:21:06;1.90;99.90
10968;DHT22;5536;49.602;10.980;2022-11-20T06:23:35;1.90;99.90
10968;DHT22;5536;49.602;10.980;2022-11-20T06:26:03;1.90;99.90
10968;DHT22;5536;49.602;10.980;2022-11-20T06:28:32;2.00;99.90
10968;DHT22;5536;49.602;10.980;2022-11-20T06:30:59;2.00;99.90
10968;DHT22;5536;49.602;10.980;2022-11-20T06:33:27;2.00;99.90
10968;DHT22;5536;49.602;10.980;2022-11-20T06:35:56;2.10;99.90
10968;DHT22;5536;49.602;10.980;2022-11-20T06:38:23;2.10;99.90
10968;DHT22;5536;49.602;10.980;2022-11-20T06:40:50;2.00;99.90
10968;DHT22;5536;49.602;10.980;2022-11-20T06:43:17;2.00;99.90
10968;DHT22;5536;49.602;10.980;2022-11-20T06:45:45;1.90;99.90
10968;DHT22;5536;49.602;10.980;2022-11-20T06:48:12;2.00;99.90
10968;DHT22;5536;49.602;10.980;2022-11-20T06:50:39;2.00;99.90
10968;DHT22;5536;49.602;10.980;2022-11-20T06:53:06;2.00;99.90
10968;DHT22;5536;49.602;10.980;2022-11-20T06:55:33;2.00;99.90
10968;DHT22;5536;49.602;10.980;2022-11-20T06:58:00;2.10;99.90
10968;DHT22;5536;49.602;10.980;2022-11-20T07:00:27;2.10;99.90
10968;DHT22;5536;49.602;10.980;2022-11-20T07:02:55;2.00;99.90
10968;DHT22;5536;49.602;10.980;2022-11-20T07:05:22;2.00;99.90
10968;DHT22;5536;49.602;10.980;2022-11-20T07:07:49;2.00;99.90
10968;DHT22;5536;49.602;10.980;2022-11-20T07:10:16;1.90;99.90
10968;DHT22;5536;49.602;10.980;2022-11-20T07:12:48;1.90;99.90
10968;DHT22;5536;49.602;10.980;2022-11-20T07:15:15;2.00;99.90
10968;DHT22;5536;49.602;10.980;2022-11-20T07:17:42;2.10;99.90
10968;DHT22;5536;49.602;10.980;2022-11-20T07:22:38;2.10;99.90
10968;DHT22;5536;49.602;10.980;2022-11-20T07:25:06;2.00;99.90
10968;DHT22;5536;49.602;10.980;2022-11-20T07:27:33;1.90;99.90
10968;DHT22;5536;49.602;10.980;2022-11-20T07:30:00;1.90;99.90
10968;DHT22;5536;49.602;10.980;2022-11-20T07:32:27;1.80;99.90
10968;DHT22;5536;49.602;10.980;2022-11-20T07:34:54;1.70;99.90
10968;DHT22;5536;49.602;10.980;2022-11-20T07:37:22;1.70;99.90
10968;DHT22;5536;49.602;10.980;2022-11-20T07:39:49;1.80;99.90
10968;DHT22;5536;49.602;10.980;2022-11-20T07:42:16;1.80;99.90
10968;DHT22;5536;49.602;10.980;2022-11-20T07:44:43;1.80;99.90
10968;DHT22;5536;49.602;10.980;2022-11-20T07:47:10;1.80;99.90
10968;DHT22;5536;49.602;10.980;2022-11-20T07:49:37;1.80;99.90
10968;DHT22;5536;49.602;10.980;2022-11-20T07:52:04;1.80;99.90
10968;DHT22;5536;49.602;10.980;2022-11-20T07:54:32;1.70;99.90
10968;DHT22;5536;49.602;10.980;2022-11-20T07:56:59;1.70;99.90
10968;DHT22;5536;49.602;10.980;2022-11-20T07:59:26;1.80;99.90
10968;DHT22;5536;49.602;10.980;2022-11-20T08:01:53;1.80;99.90
10968;DHT22;5536;49.602;10.980;2022-11-20T08:04:20;1.90;99.90
10968;DHT22;5536;49.602;10.980;2022-11-20T08:06:47;1.90;99.90
10968;DHT22;5536;49.602;10.980;2022-11-20T08:09:14;1.90;99.90
10968;DHT22;5536;49.602;10.980;2022-11-20T08:11:42;2.00;99.90
10968;DHT22;5536;49.602;10.980;2022-11-20T08:14:26;1.90;99.90
10968;DHT22;5536;49.602;10.980;2022-11-20T08:16:53;1.80;99.90
10968;DHT22;5536;49.602;10.980;2022-11-20T08:19:20;1.80;99.90
10968;DHT22;5536;49.602;10.980;2022-11-20T08:21:47;1.90;99.90
10968;DHT22;5536;49.602;10.980;2022-11-20T08:24:14;1.90;99.90
10968;DHT22;5536;49.602;10.980;2022-11-20T08:26:42;2.00;99.90
10968;DHT22;5536;49.602;10.980;2022-11-20T08:29:09;1.90;99.90
10968;DHT22;5536;49.602;10.980;2022-11-20T08:31:36;1.90;99.90
10968;DHT22;5536;49.602;10.980;2022-11-20T08:34:03;1.90;99.90
10968;DHT22;5536;49.602;10.980;2022-11-20T08:36:32;1.80;99.90
10968;DHT22;5536;49.602;10.980;2022-11-20T08:39:00;1.90;99.90
10968;DHT22;5536;49.602;10.980;2022-11-20T08:41:27;1.80;99.90
10968;DHT22;5536;49.602;10.980;2022-11-20T08:43:56;1.80;99.90
10968;DHT22;5536;49.602;10.980;2022-11-20T08:46:25;1.90;99.90
10968;DHT22;5536;49.602;10.980;2022-11-20T08:48:52;2.10;99.90
10968;DHT22;5536;49.602;10.980;2022-11-20T08:51:20;2.10;99.90
10968;DHT22;5536;49.602;10.980;2022-11-20T08:53:47;2.20;99.90
10968;DHT22;5536;49.602;10.980;2022-11-20T08:56:15;2.10;99.90
10968;DHT22;5536;49.602;10.980;2022-11-20T08:58:41;2.10;99.90
10968;DHT22;5536;49.602;10.980;2022-11-20T09:01:10;2.10;99.90
10968;DHT22;5536;49.602;10.980;2022-11-20T09:03:37;2.20;99.90
10968;DHT22;5536;49.602;10.980;2022-11-20T09:06:06;2.10;99.90
10968;DHT22;5536;49.602;10.980;2022-11-20T09:08:33;2.20;99.90
10968;DHT22;5536;49.602;10.980;2022-11-20T09:11:01;2.10;99.90
10968;DHT22;5536;49.602;10.980;2022-11-20T09:13:29;2.10;99.90
10968;DHT22;5536;49.602;10.980;2022-11-20T09:15:58;2.10;99.90
10968;DHT22;5536;49.602;10.980;2022-11-20T09:18:28;2.10;99.90
10968;DHT22;5536;49.602;10.980;2022-11-20T09:20:57;2.20;99.90
10968;DHT22;5536;49.602;10.980;2022-11-20T09:23:24;2.10;99.90
10968;DHT22;5536;49.602;10.980;2022-11-20T09:25:51;2.10;99.90
10968;DHT22;5536;49.602;10.980;2022-11-20T09:28:21;2.20;99.90
10968;DHT22;5536;49.602;10.980;2022-11-20T09:30:48;2.30;99.90
10968;DHT22;5536;49.602;10.980;2022-11-20T09:33:15;2.30;99.90
10968;DHT22;5536;49.602;10.980;2022-11-20T09:35:44;2.30;99.90
10968;DHT22;5536;49.602;10.980;2022-11-20T09:38:11;2.30;99.90
10968;DHT22;5536;49.602;10.980;2022-11-20T09:40:45;2.40;99.90
10968;DHT22;5536;49.602;10.980;2022-11-20T09:43:17;2.40;99.90
10968;DHT22;5536;49.602;10.980;2022-11-20T09:46:00;2.40;99.90
10968;DHT22;5536;49.602;10.980;2022-11-20T09:48:41;2.50;99.90
10968;DHT22;5536;49.602;10.980;2022-11-20T09:51:17;2.60;99.90
10968;DHT22;5536;49.602;10.980;2022-11-20T09:53:57;2.70;99.90
10968;DHT22;5536;49.602;10.980;2022-11-20T09:56:28;2.80;99.90
10968;DHT22;5536;49.602;10.980;2022-11-20T09:58:58;2.80;99.90
10968;DHT22;5536;49.602;10.980;2022-11-20T10:01:29;2.60;99.90
10968;DHT22;5536;49.602;10.980;2022-11-20T10:04:00;2.50;99.90
10968;DHT22;5536;49.602;10.980;2022-11-20T10:06:31;2.70;99.90
10968;DHT22;5536;49.602;10.980;2022-11-20T10:09:13;2.70;99.90
10968;DHT22;5536;49.602;10.980;2022-11-20T10:11:48;2.70;99.90
10968;DHT22;5536;49.602;10.980;2022-11-20T10:14:26;2.70;99.90
10968;DHT22;5536;49.602;10.980;2022-11-20T10:17:03;2.80;99.90
10968;DHT22;5536;49.602;10.980;2022-11-20T10:19:44;2.90;99.90
10968;DHT22;5536;49.602;10.980;2022-11-20T10:22:21;2.90;99.90
10968;DHT22;5536;49.602;10.980;2022-11-20T10:24:56;2.80;99.90
10968;DHT22;5536;49.602;10.980;2022-11-20T10:27:45;2.90;99.90
10968;DHT22;5536;49.602;10.980;2022-11-20T10:30:15;2.80;99.90
10968;DHT22;5536;49.602;10.980;2022-11-20T10:32:45;2.70;99.90
10968;DHT22;5536;49.602;10.980;2022-11-20T10:35:21;2.70;99.90
10968;DHT22;5536;49.602;10.980;2022-11-20T10:37:53;2.70;99.90
10968;DHT22;5536;49.602;10.980;2022-11-20T10:40:29;2.80;99.90
10968;DHT22;5536;49.602;10.980;2022-11-20T10:43:01;2.90;99.90
10968;DHT22;5536;49.602;10.980;2022-11-20T10:45:39;2.90;99.90
10968;DHT22;5536;49.602;10.980;2022-11-20T10:48:15;2.90;99.90
10968;DHT22;5536;49.602;10.980;2022-11-20T10:50:52;3.00;99.90
10968;DHT22;5536;49.602;10.980;2022-11-20T10:53:38;3.00;99.90
10968;DHT22;5536;49.602;10.980;2022-11-20T10:56:11;3.00;99.90
10968;DHT22;5536;49.602;10.980;2022-11-20T10:58:48;2.90;99.90
10968;DHT22;5536;49.602;10.980;2022-11-20T11:01:21;2.70;99.90
10968;DHT22;5536;49.602;10.980;2022-11-20T11:03:49;2.80;99.90
10968;DHT22;5536;49.602;10.980;2022-11-20T11:06:23;2.80;99.90
10968;DHT22;5536;49.602;10.980;2022-11-20T11:08:56;2.80;99.90
10968;DHT22;5536;49.602;10.980;2022-11-20T11:11:28;2.70;99.90
10968;DHT22;5536;49.602;10.980;2022-11-20T11:14:04;2.70;99.90
10968;DHT22;5536;49.602;10.980;2022-11-20T11:16:32;2.70;99.90
10968;DHT22;5536;49.602;10.980;2022-11-20T11:19:06;2.70;99.90
10968;DHT22;5536;49.602;10.980;2022-11-20T11:21:33;2.80;99.90
10968;DHT22;5536;49.602;10.980;2022-11-20T11:24:04;3.00;99.90
10968;DHT22;5536;49.602;10.980;2022-11-20T11:26:31;3.10;99.90
10968;DHT22;5536;49.602;10.980;2022-11-20T11:28:59;3.20;99.90
10968;DHT22;5536;49.602;10.980;2022-11-20T11:31:28;3.20;99.90
10968;DHT22;5536;49.602;10.980;2022-11-20T11:34:04;3.40;99.90
10968;DHT22;5536;49.602;10.980;2022-11-20T11:36:33;3.60;99.90
10968;DHT22;5536;49.602;10.980;2022-11-20T11:39:03;3.70;99.90
10968;DHT22;5536;49.602;10.980;2022-11-20T11:41:33;3.70;99.90
10968;DHT22;5536;49.602;10.980;2022-11-20T11:44:14;3.70;99.90
10968;DHT22;5536;49.602;10.980;2022-11-20T11:47:00;3.80;99.90
10968;DHT22;5536;49.602;10.980;2022-11-20T11:49:27;3.70;99.90
10968;DHT22;5536;49.602;10.980;2022-11-20T11:52:01;3.70;99.90
10968;DHT22;5536;49.602;10.980;2022-11-20T11:54:36;3.90;99.90
10968;DHT22;5536;49.602;10.980;2022-11-20T11:57:10;4.10;99.90
10968;DHT22;5536;49.602;10.980;2022-11-20T11:59:49;4.40;99.90
10968;DHT22;5536;49.602;10.980;2022-11-20T12:02:38;4.60;99.90
10968;DHT22;5536;49.602;10.980;2022-11-20T12:05:16;4.40;99.90
10968;DHT22;5536;49.602;10.980;2022-11-20T12:07:46;4.30;99.90
10968;DHT22;5536;49.602;10.980;2022-11-20T12:10:23;4.20;99.90
10968;DHT22;5536;49.602;10.980;2022-11-20T12:13:01;4.00;99.90
10968;DHT22;5536;49.602;10.980;2022-11-20T12:15:31;3.90;99.90
10968;DHT22;5536;49.602;10.980;2022-11-20T12:17:58;3.80;99.90
10968;DHT22;5536;49.602;10.980;2022-11-20T12:20:28;3.70;99.90
10968;DHT22;5536;49.602;10.980;2022-11-20T12:23:03;3.80;99.90
10968;DHT22;5536;49.602;10.980;2022-11-20T12:25:35;3.80;99.90
10968;DHT22;5536;49.602;10.980;2022-11-20T12:28:18;3.80;99.90
10968;DHT22;5536;49.602;10.980;2022-11-20T12:30:58;3.70;99.90
10968;DHT22;5536;49.602;10.980;2022-11-20T12:33:53;3.80;99.90
10968;DHT22;5536;49.602;10.980;2022-11-20T12:36:29;3.80;99.90
10968;DHT22;5536;49.602;10.980;2022-11-20T12:39:22;3.80;99.90
10968;DHT22;5536;49.602;10.980;2022-11-20T12:42:17;3.80;99.90
10968;DHT22;5536;49.602;10.980;2022-11-20T12:45:32;3.90;99.90
10968;DHT22;5536;49.602;10.980;2022-11-20T12:56:55;3.90;99.90
10968;DHT22;5536;49.602;10.980;2022-11-20T12:59:48;4.00;99.90
10968;DHT22;5536;49.602;10.980;2022-11-20T13:02:24;4.00;99.90
10968;DHT22;5536;49.602;10.980;2022-11-20T13:05:14;4.00;99.90
10968;DHT22;5536;49.602;10.980;2022-11-20T13:07:45;4.00;99.90
10968;DHT22;5536;49.602;10.980;2022-11-20T13:10:20;4.00;99.90
10968;DHT22;5536;49.602;10.980;2022-11-20T13:12:53;4.00;99.90
10968;DHT22;5536;49.602;10.980;2022-11-20T13:15:36;4.00;99.90
10968;DHT22;5536;49.602;10.980;2022-11-20T13:18:09;3.90;99.90
10968;DHT22;5536;49.602;10.980;2022-11-20T13:20:41;3.90;99.90
10968;DHT22;5536;49.602;10.980;2022-11-20T13:23:09;3.90;99.90
10968;DHT22;5536;49.602;10.980;2022-11-20T13:25:37;3.90;99.90
10968;DHT22;5536;49.602;10.980;2022-11-20T13:28:26;3.90;99.90
10968;DHT22;5536;49.602;10.980;2022-11-20T13:30:56;3.90;99.90
10968;DHT22;5536;49.602;10.980;2022-11-20T13:33:27;3.90;99.90
10968;DHT22;5536;49.602;10.980;2022-11-20T13:35:57;3.90;99.90
10968;DHT22;5536;49.602;10.980;2022-11-20T13:38:24;3.90;99.90
10968;DHT22;5536;49.602;10.980;2022-11-20T13:40:53;3.90;99.90
10968;DHT22;5536;49.602;10.980;2022-11-20T13:43:26;3.90;99.90
10968;DHT22;5536;49.602;10.980;2022-11-20T13:45:57;3.90;99.90
10968;DHT22;5536;49.602;10.980;2022-11-20T13:48:26;3.90;99.90
10968;DHT22;5536;49.602;10.980;2022-11-20T13:51:12;3.90;99.90
10968;DHT22;5536;49.602;10.980;2022-11-20T13:54:01;3.80;99.90
10968;DHT22;5536;49.602;10.980;2022-11-20T13:56:40;3.90;99.90
10968;DHT22;5536;49.602;10.980;2022-11-20T13:59:18;3.80;99.90
10968;DHT22;5536;49.602;10.980;2022-11-20T14:01:51;3.90;99.90
10968;DHT22;5536;49.602;10.980;2022-11-20T14:04:22;4.00;99.90
10968;DHT22;5536;49.602;10.980;2022-11-20T14:06:52;3.90;99.90
10968;DHT22;5536;49.602;10.980;2022-11-20T14:09:26;4.00;99.90
10968;DHT22;5536;49.602;10.980;2022-11-20T14:11:54;3.90;99.90
10968;DHT22;5536;49.602;10.980;2022-11-20T14:14:22;3.90;99.90
10968;DHT22;5536;49.602;10.980;2022-11-20T14:16:51;3.90;99.90
10968;DHT22;5536;49.602;10.980;2022-11-20T14:19:28;3.90;99.90
10968;DHT22;5536;49.602;10.980;2022-11-20T14:22:08;4.00;99.90
10968;DHT22;5536;49.602;10.980;2022-11-20T14:24:35;3.90;99.90
10968;DHT22;5536;49.602;10.980;2022-11-20T14:27:02;3.80;99.90
10968;DHT22;5536;49.602;10.980;2022-11-20T14:29:34;3.80;99.90
10968;DHT22;5536;49.602;10.980;2022-11-20T14:32:03;3.80;99.90
10968;DHT22;5536;49.602;10.980;2022-11-20T14:34:32;3.80;99.90
10968;DHT22;5536;49.602;10.980;2022-11-20T14:37:05;3.80;99.90
10968;DHT22;5536;49.602;10.980;2022-11-20T14:39:34;3.80;99.90
10968;DHT22;5536;49.602;10.980;2022-11-20T14:42:01;3.70;99.90
10968;DHT22;5536;49.602;10.980;2022-11-20T14:44:32;3.70;99.90
10968;DHT22;5536;49.602;10.980;2022-11-20T14:47:00;3.80;99.90
10968;DHT22;5536;49.602;10.980;2022-11-20T14:49:31;3.80;99.90
10968;DHT22;5536;49.602;10.980;2022-11-20T14:51:59;3.80;99.90
10968;DHT22;5536;49.602;10.980;2022-11-20T14:54:26;3.80;99.90
10968;DHT22;5536;49.602;10.980;2022-11-20T14:56:55;3.80;99.90
10968;DHT22;5536;49.602;10.980;2022-11-20T14:59:26;3.80;99.90
10968;DHT22;5536;49.602;10.980;2022-11-20T15:01:56;3.80;99.90
10968;DHT22;5536;49.602;10.980;2022-11-20T15:04:24;3.80;99.90
10968;DHT22;5536;49.602;10.980;2022-11-20T15:06:54;3.80;99.90
10968;DHT22;5536;49.602;10.980;2022-11-20T15:09:21;3.80;99.90
10968;DHT22;5536;49.602;10.980;2022-11-20T15:11:54;3.80;99.90
10968;DHT22;5536;49.602;10.980;2022-11-20T15:14:22;3.70;99.90
10968;DHT22;5536;49.602;10.980;2022-11-20T15:16:49;3.70;99.90
10968;DHT22;5536;49.602;10.980;2022-11-20T15:19:18;3.70;99.90
10968;DHT22;5536;49.602;10.980;2022-11-20T15:21:46;3.80;99.90
10968;DHT22;5536;49.602;10.980;2022-11-20T15:24:15;3.80;99.90
10968;DHT22;5536;49.602;10.980;2022-11-20T15:26:42;3.90;99.90
10968;DHT22;5536;49.602;10.980;2022-11-20T15:29:11;3.90;99.90
10968;DHT22;5536;49.602;10.980;2022-11-20T15:31:38;3.80;99.90
10968;DHT22;5536;49.602;10.980;2022-11-20T15:34:09;3.80;99.90
10968;DHT22;5536;49.602;10.980;2022-11-20T15:36:37;3.80;99.90
10968;DHT22;5536;49.602;10.980;2022-11-20T15:39:04;3.80;99.90
10968;DHT22;5536;49.602;10.980;2022-11-20T15:41:34;3.80;99.90
10968;DHT22;5536;49.602;10.980;2022-11-20T15:44:01;3.90;99.90
10968;DHT22;5536;49.602;10.980;2022-11-20T15:46:29;3.90;99.90
10968;DHT22;5536;49.602;10.980;2022-11-20T15:48:59;3.90;99.90
10968;DHT22;5536;49.602;10.980;2022-11-20T15:51:27;4.00;99.90
10968;DHT22;5536;49.602;10.980;2022-11-20T15:53:56;3.90;99.90
10968;DHT22;5536;49.602;10.980;2022-11-20T15:56:23;4.00;99.90
10968;DHT22;5536;49.602;10.980;2022-11-20T15:58:51;3.90;99.90
10968;DHT22;5536;49.602;10.980;2022-11-20T16:01:20;3.90;99.90
10968;DHT22;5536;49.602;10.980;2022-11-20T16:03:48;3.80;99.90
10968;DHT22;5536;49.602;10.980;2022-11-20T16:06:15;3.80;99.90
10968;DHT22;5536;49.602;10.980;2022-11-20T16:08:42;3.70;99.90
10968;DHT22;5536;49.602;10.980;2022-11-20T16:11:11;3.80;99.90
10968;DHT22;5536;49.602;10.980;2022-11-20T16:13:38;3.80;99.90
10968;DHT22;5536;49.602;10.980;2022-11-20T16:16:26;3.80;99.90